createdAt,value
2022-12-12T00:01:22.485Z,2.4375
2022-12-12T00:04:16.578Z,2.7375000000000003
2022-12-12T00:07:16.478Z,2.5500000000000003
2022-12-12T00:11:15.861Z,4.975
2022-12-12T00:14:16.085Z,3.075
2022-12-12T00:17:16.209Z,4.375
2022-12-12T00:21:19.003Z,4.5
2022-12-12T00:24:16.349Z,4.2
2022-12-12T00:27:16.466Z,2.625
2022-12-12T00:31:16.899Z,2.8625
2022-12-12T00:34:16.751Z,1.5375
2022-12-12T00:37:17.195Z,1.7375
2022-12-12T00:41:16.925Z,1.975
2022-12-12T00:44:17.184Z,3.7125
2022-12-12T00:47:16.715Z,2.7375
2022-12-12T00:51:18.717Z,2.3999999999999995
2022-12-12T00:54:16.826Z,1.9875
2022-12-12T00:57:16.809Z,2.3375
2022-12-12T01:01:18.713Z,2.4
2022-12-12T01:04:16.248Z,2.7625
2022-12-12T01:07:16.229Z,2.15
2022-12-12T01:11:16.859Z,2.875
2022-12-12T01:14:16.455Z,2.5375
2022-12-12T01:17:16.358Z,2.4875000000000003
2022-12-12T01:21:18.645Z,2.1875
2022-12-12T01:24:16.207Z,1.4
2022-12-12T01:27:16.271Z,1.2125
2022-12-12T01:31:16.675Z,2.4875
2022-12-12T01:34:17.189Z,2.6
2022-12-12T01:37:16.807Z,2.3375000000000004
2022-12-12T01:41:16.801Z,2.1875
2022-12-12T01:44:41.217Z,3.8124999999999996
2022-12-12T01:47:17.901Z,2.475
2022-12-12T01:51:18.577Z,2.85
2022-12-12T01:54:21.246Z,1.1625
2022-12-12T01:57:20.259Z,1.7625
2022-12-12T02:01:18.170Z,2.2625
2022-12-12T02:04:17.695Z,1.9625
2022-12-12T02:07:18.039Z,1.875
2022-12-12T02:11:16.462Z,1.825
2022-12-12T02:14:20.100Z,1.5375
2022-12-12T02:17:40.500Z,1.6124999999999998
2022-12-12T02:21:24.675Z,2.0375
2022-12-12T02:24:52.144Z,2.7375
2022-12-12T02:27:52.543Z,2.2
2022-12-12T02:31:24.078Z,1.6624999999999999
2022-12-12T02:34:26.267Z,1.9625000000000001
2022-12-12T02:37:25.229Z,2.075
2022-12-12T02:41:26.321Z,2.2625
2022-12-12T02:44:24.831Z,2.875
2022-12-12T02:47:35.478Z,2.8499999999999996
2022-12-12T02:51:17.919Z,4.15
2022-12-12T02:54:19.423Z,5.85
2022-12-12T02:57:18.507Z,2.725
2022-12-12T03:01:26.426Z,1.875
2022-12-12T03:11:25.104Z,3.9875000000000003
2022-12-12T03:14:23.805Z,1.5750000000000002
2022-12-12T03:17:24.976Z,1.4875
2022-12-12T03:21:23.119Z,3.9624999999999995
2022-12-12T03:24:24.853Z,1.75
2022-12-12T03:27:22.399Z,2.2625
2022-12-12T03:31:21.725Z,1.375
2022-12-12T03:34:19.915Z,1.2000000000000002
2022-12-12T03:37:21.743Z,0.95
2022-12-12T03:41:20.239Z,1.7249999999999999
2022-12-12T03:44:21.638Z,1.45
2022-12-12T03:47:22.557Z,1.0875
2022-12-12T03:51:21.597Z,1.5499999999999998
2022-12-12T03:54:22.891Z,1.425
2022-12-12T03:57:19.331Z,1.8375
2022-12-12T04:01:18.676Z,1.375
2022-12-12T04:04:24.028Z,0.9875
2022-12-12T04:07:21.790Z,2.025
2022-12-12T04:31:20.163Z,5.1625
2022-12-12T04:34:28.479Z,8.2625
2022-12-12T04:37:20.649Z,5.65
2022-12-12T04:41:18.998Z,8.725
2022-12-12T04:44:18.545Z,5.125
2022-12-12T04:47:19.985Z,2.8125
2022-12-12T04:51:20.286Z,5.025
2022-12-12T04:54:24.887Z,13.5125
2022-12-12T04:57:23.390Z,2.7625
2022-12-12T05:01:25.170Z,9.7875
2022-12-12T05:04:23.723Z,16.075
2022-12-12T05:07:25.466Z,8.775
2022-12-12T05:11:17.538Z,10.25
2022-12-12T05:14:17.298Z,2.0875000000000004
2022-12-12T05:17:24.434Z,1.325
2022-12-12T05:21:16.540Z,1.1375
2022-12-12T05:24:16.306Z,1.3875000000000002
2022-12-12T05:27:16.428Z,2.4375
2022-12-12T05:31:16.854Z,1.6375000000000002
2022-12-12T05:34:17.267Z,1.4
2022-12-12T05:37:16.879Z,1.2000000000000002
2022-12-12T05:41:15.885Z,0.925
2022-12-12T05:44:16.185Z,0.8374999999999999
2022-12-12T05:47:16.130Z,1.0374999999999999
2022-12-12T05:51:16.953Z,0.775
2022-12-12T05:54:16.731Z,1.9625
2022-12-12T05:57:17.551Z,1
2022-12-12T06:01:16.216Z,1.325
2022-12-12T06:04:16.653Z,1.5
2022-12-12T06:07:16.605Z,1.5750000000000002
2022-12-12T06:11:16.227Z,1.15
2022-12-12T06:14:17.007Z,0.75
2022-12-12T06:17:16.725Z,0.7625000000000001
2022-12-12T06:21:15.971Z,1.075
2022-12-12T06:24:16.366Z,0.9875
2022-12-12T06:27:16.601Z,0.675
2022-12-12T06:31:16.630Z,1.5375
2022-12-12T06:34:16.415Z,1.225
2022-12-12T06:37:17.465Z,0.675
2022-12-12T06:41:16.388Z,1.225
2022-12-12T06:44:16.488Z,1.15
2022-12-12T06:47:16.567Z,0.8624999999999999
2022-12-12T06:51:18.513Z,1.3875000000000002
2022-12-12T06:54:18.174Z,1
2022-12-12T06:57:16.665Z,1.175
2022-12-12T07:01:21.100Z,0.7375
2022-12-12T07:04:16.922Z,0.9750000000000001
2022-12-12T07:07:16.899Z,0.925
2022-12-12T07:11:18.489Z,0.85
2022-12-12T07:14:16.738Z,0.8
2022-12-12T07:17:16.593Z,0.4375
2022-12-12T07:21:19.101Z,0.8625
2022-12-12T07:24:16.883Z,0.6
2022-12-12T07:27:21.455Z,0.7125
2022-12-12T07:31:21.120Z,0.9875000000000002
2022-12-12T07:34:16.970Z,0.9000000000000001
2022-12-12T07:37:16.887Z,0.8999999999999999
2022-12-12T07:41:17.486Z,1.675
2022-12-12T07:44:16.420Z,2.9000000000000004
2022-12-12T07:47:16.170Z,0.8
2022-12-12T07:51:17.174Z,1.175
2022-12-12T07:54:16.700Z,0.8375
2022-12-12T07:57:16.569Z,0.7374999999999999
2022-12-12T08:01:18.499Z,0.7625
2022-12-12T08:04:16.738Z,0.9875
2022-12-12T08:07:16.689Z,1
2022-12-12T08:11:18.884Z,0.5
2022-12-12T08:14:17.057Z,0.7875000000000001
2022-12-12T08:17:17.289Z,0.625
2022-12-12T08:21:23.163Z,0.9125000000000001
2022-12-12T08:24:17.058Z,1.8250000000000002
2022-12-12T08:27:16.879Z,1.225
2022-12-12T08:31:18.575Z,1.4500000000000002
2022-12-12T08:34:17.211Z,1.5375
2022-12-12T08:37:16.904Z,2.5
2022-12-12T08:41:17.062Z,1.4875
2022-12-12T08:44:19.491Z,1.0375
2022-12-12T08:47:16.785Z,1.1375000000000002
2022-12-12T08:51:17.636Z,0.7375
2022-12-12T08:54:16.599Z,0.6125
2022-12-12T08:57:18.419Z,0.525
2022-12-12T09:01:18.739Z,0.475
2022-12-12T09:04:16.734Z,1.0750000000000002
2022-12-12T09:07:16.680Z,0.6875
2022-12-12T09:11:17.491Z,0.7625
2022-12-12T09:14:16.806Z,0.5375
2022-12-12T09:17:16.682Z,0.6375000000000001
2022-12-12T09:21:16.509Z,0.55
2022-12-12T09:24:16.728Z,0.55
2022-12-12T09:27:16.575Z,1.475
2022-12-12T09:31:16.410Z,0.55
2022-12-12T09:34:16.558Z,0.25
2022-12-12T09:37:16.539Z,0.7875
2022-12-12T09:41:19.596Z,0.575
2022-12-12T09:44:22.026Z,0.8625
2022-12-12T09:47:21.725Z,0.47500000000000003
2022-12-12T09:51:16.239Z,0.75
2022-12-12T09:54:19.304Z,0.5875
2022-12-12T09:57:25.622Z,0.4125
2022-12-12T10:01:24.987Z,0.7375
2022-12-12T10:04:27.632Z,0.75
2022-12-12T10:07:23.842Z,0.475
2022-12-12T10:11:52.745Z,0.5
2022-12-12T10:14:20.584Z,0.6124999999999999
2022-12-12T10:17:21.240Z,0.7875
2022-12-12T10:21:21.644Z,0.9125000000000001
2022-12-12T10:24:29.449Z,0.9375
2022-12-12T10:27:16.922Z,1.925
2022-12-12T10:31:27.898Z,2.9
2022-12-12T10:34:30.218Z,2.1875
2022-12-12T10:37:28.156Z,1.7874999999999999
2022-12-12T10:41:23.715Z,3.3499999999999996
2022-12-12T10:44:46.997Z,2.7125
2022-12-12T10:47:17.880Z,3.1125
2022-12-12T10:51:19.420Z,3.4000000000000004
2022-12-12T10:54:18.469Z,3.525
2022-12-12T10:57:20.930Z,3.3625
2022-12-12T11:01:33.020Z,4.0375000000000005
2022-12-12T11:04:16.789Z,3.2375
2022-12-12T11:07:20.027Z,3.1875
2022-12-12T11:11:19.328Z,3.8125
2022-12-12T11:14:26.696Z,3
2022-12-12T11:17:22.067Z,3.5875
2022-12-12T11:21:20.034Z,3.25
2022-12-12T11:24:18.980Z,2.55
2022-12-12T11:27:22.056Z,2.175
2022-12-12T11:31:22.693Z,2.6375
2022-12-12T11:34:17.415Z,2.325
2022-12-12T11:37:19.635Z,2.3375000000000004
2022-12-12T11:41:16.496Z,2.3625
2022-12-12T11:44:23.480Z,2.35
2022-12-12T11:47:26.147Z,2.175
2022-12-12T11:51:31.551Z,1.9749999999999999
2022-12-12T11:54:28.938Z,2.0500000000000003
2022-12-12T11:57:32.647Z,2.1125
2022-12-12T12:01:23.680Z,2.3375
2022-12-12T12:04:28.836Z,2.6125
2022-12-12T12:07:38.464Z,2.625
2022-12-12T12:11:26.373Z,2.2875
2022-12-12T12:14:36.481Z,1.6875000000000002
2022-12-12T12:17:28.695Z,1.8125
2022-12-12T12:21:28.517Z,2.2750000000000004
2022-12-12T12:24:30.692Z,2
2022-12-12T12:27:30.103Z,1.8
2022-12-12T12:31:26.692Z,2.0999999999999996
2022-12-12T12:34:26.233Z,1.9625
2022-12-12T12:37:31.848Z,2.05
2022-12-12T12:41:30.326Z,1.9875
2022-12-12T12:44:29.453Z,2.0125
2022-12-12T12:47:26.143Z,2.4125
2022-12-12T12:51:20.981Z,1.975
2022-12-12T12:54:22.533Z,1.75
2022-12-12T12:57:23.707Z,2.075
2022-12-12T13:01:22.501Z,2.0125
2022-12-12T13:04:22.321Z,1.9499999999999997
2022-12-12T13:07:28.961Z,2.1374999999999997
2022-12-12T13:11:21.548Z,2.4749999999999996
2022-12-12T13:14:29.787Z,2.1375
2022-12-12T13:17:22.693Z,1.5375
2022-12-12T13:21:24.222Z,2.025
2022-12-12T13:24:24.730Z,1.9375000000000002
2022-12-12T13:27:24.335Z,2
2022-12-12T13:31:36.314Z,3.8625
2022-12-12T13:34:19.889Z,2.575
2022-12-12T13:37:19.482Z,2.5125
2022-12-12T13:41:16.749Z,3.7875
2022-12-12T13:44:33.791Z,1.9375
2022-12-12T13:51:35.908Z,1.8625
2022-12-12T13:54:49.678Z,1.275
2022-12-12T13:57:30.305Z,2.2874999999999996
2022-12-12T14:01:36.551Z,1.8125
2022-12-12T14:04:25.639Z,1.6375000000000002
2022-12-12T14:07:21.847Z,1.1625
2022-12-12T14:11:26.745Z,1.3
2022-12-12T14:14:20.946Z,1.4875
2022-12-12T14:17:20.253Z,0.9875
2022-12-12T14:21:18.106Z,1.3375
2022-12-12T14:31:16.713Z,2.175
2022-12-12T14:34:28.277Z,1.65
2022-12-12T14:37:49.807Z,1.6375
2022-12-12T14:41:22.016Z,1.75
2022-12-12T14:44:38.097Z,1.8250000000000002
2022-12-12T14:47:17.213Z,1.4874999999999998
2022-12-12T14:51:27.501Z,2.0375
2022-12-12T14:54:20.236Z,4.1125
2022-12-12T14:57:20.998Z,3.925
2022-12-12T15:01:25.727Z,3.1
2022-12-12T15:04:20.729Z,2.15
2022-12-12T15:07:26.448Z,1.475
2022-12-12T15:11:19.993Z,1.4625
2022-12-12T15:14:21.221Z,1.45
2022-12-12T15:17:19.598Z,1.5375
2022-12-12T15:21:16.954Z,2.3125
2022-12-12T15:24:20.925Z,3
2022-12-12T15:27:28.633Z,3.3125
2022-12-12T15:31:17.853Z,2.55
2022-12-12T15:34:37.369Z,1.7125
2022-12-12T15:37:27.350Z,1.0999999999999999
2022-12-12T15:41:16.800Z,1.5374999999999999
2022-12-12T15:44:20.148Z,1.6125
2022-12-12T15:47:19.476Z,1.9625
2022-12-12T15:51:24.415Z,2.125
2022-12-12T15:54:16.738Z,2.5
2022-12-12T15:57:19.412Z,2.1875
2022-12-12T16:01:20.522Z,1.675
2022-12-12T16:04:23.250Z,1.5625
2022-12-12T16:07:21.309Z,6.387500000000001
2022-12-12T16:11:38.652Z,3.7750000000000004
2022-12-12T16:14:39.539Z,3.1875
2022-12-12T16:17:19.212Z,4.1125
2022-12-12T16:21:16.150Z,2.625
2022-12-12T16:24:22.355Z,2.7750000000000004
2022-12-12T16:27:16.704Z,2.3
2022-12-12T16:31:17.535Z,2.7375
2022-12-12T16:34:17.290Z,2.05
2022-12-12T16:37:17.818Z,2.25
2022-12-12T16:41:17.685Z,2.8375
2022-12-12T16:44:16.690Z,3.5124999999999997
2022-12-12T16:47:18.915Z,2.575
2022-12-12T16:51:20.650Z,3.45
2022-12-12T16:54:17.210Z,3.0875000000000004
2022-12-12T16:57:16.841Z,2.95
2022-12-12T17:01:17.304Z,2.9625
2022-12-12T17:04:20.072Z,2.7750000000000004
2022-12-12T17:07:16.912Z,3.325
2022-12-12T17:11:16.239Z,3.25
2022-12-12T17:14:20.643Z,2.5375
2022-12-12T17:17:16.898Z,5.5874999999999995
2022-12-12T17:21:16.627Z,4.2
2022-12-12T17:24:17.194Z,3.0375
2022-12-12T17:27:17.057Z,4
2022-12-12T17:31:16.578Z,3.5375
2022-12-12T17:34:17.011Z,3.15
2022-12-12T17:37:16.812Z,1.6749999999999998
2022-12-12T17:41:16.824Z,2.5
2022-12-12T17:44:17.142Z,5.7250000000000005
2022-12-12T17:47:16.954Z,6.7125
2022-12-12T17:51:20.099Z,6.775
2022-12-12T17:54:16.740Z,4.8625
2022-12-12T17:57:16.729Z,3.6125
2022-12-12T18:01:19.025Z,12.0625
2022-12-12T18:04:16.757Z,14.5
2022-12-12T18:07:16.737Z,11.6
2022-12-12T18:11:17.851Z,13.8625
2022-12-12T18:14:16.323Z,14.1
2022-12-12T18:17:16.349Z,16.8625
2022-12-12T18:21:58.533Z,20.7375
2022-12-12T18:24:18.576Z,19.575
2022-12-12T18:27:17.433Z,21.1875
2022-12-12T18:31:16.124Z,17.775
2022-12-12T18:34:19.960Z,13.2875
2022-12-12T18:37:17.044Z,13.075
2022-12-12T18:41:16.765Z,25.4875
2022-12-12T18:44:16.499Z,18.3375
2022-12-12T18:47:27.265Z,15.225000000000001
2022-12-12T18:51:19.301Z,11.8125
2022-12-12T18:54:17.330Z,10.3375
2022-12-12T18:57:17.558Z,9.337499999999999
2022-12-12T19:01:19.947Z,9.825
2022-12-12T19:04:22.521Z,8.175
2022-12-12T19:07:18.517Z,7.675000000000001
2022-12-12T19:11:17.048Z,9.2375
2022-12-12T19:14:16.698Z,9.5875
2022-12-12T19:17:19.533Z,6.699999999999999
2022-12-12T19:21:18.561Z,5.3125
2022-12-12T19:24:16.439Z,5.4
2022-12-12T19:27:16.601Z,4.1
2022-12-12T19:31:17.488Z,4.6499999999999995
2022-12-12T19:34:17.119Z,5.7124999999999995
2022-12-12T19:37:17.041Z,6.8
2022-12-12T19:41:19.607Z,5.35
2022-12-12T19:44:16.678Z,5.9624999999999995
2022-12-12T19:47:16.922Z,4.6875
2022-12-12T19:51:18.558Z,4.737500000000001
2022-12-12T19:54:19.468Z,5.737500000000001
2022-12-12T19:57:34.776Z,6.9125
2022-12-12T20:01:19.304Z,7.7875
2022-12-12T20:04:18.940Z,8.075
2022-12-12T20:07:17.138Z,7.950000000000001
2022-12-12T20:11:19.098Z,7.137499999999999
2022-12-12T20:14:19.874Z,5.7125
2022-12-12T20:17:17.074Z,5.762499999999999
2022-12-12T20:21:43.379Z,3.0749999999999997
2022-12-12T20:24:17.820Z,3.25
2022-12-12T20:27:16.842Z,5.487500000000001
2022-12-12T20:31:18.853Z,3.35
2022-12-12T20:34:19.790Z,2.6625
2022-12-12T20:37:20.123Z,2.875
2022-12-12T20:41:18.233Z,3.5999999999999996
2022-12-12T20:44:16.602Z,3.3875
2022-12-12T20:47:17.458Z,3.9625000000000004
2022-12-12T20:51:52.948Z,4.949999999999999
2022-12-12T20:54:17.322Z,4.7
2022-12-12T20:57:17.240Z,5.325
2022-12-12T21:01:20.336Z,5.487500000000001
2022-12-12T21:04:17.389Z,6.5
2022-12-12T21:07:17.310Z,5.925000000000001
2022-12-12T21:11:19.817Z,9.0875
2022-12-12T21:14:16.957Z,5.8375
2022-12-12T21:17:16.859Z,5.074999999999999
2022-12-12T21:21:17.718Z,4.25
2022-12-12T21:24:17.489Z,5.425000000000001
2022-12-12T21:27:17.103Z,5.1
2022-12-12T21:31:20.176Z,5.987500000000001
2022-12-12T21:34:17.482Z,6.2
2022-12-12T21:37:17.962Z,4.550000000000001
2022-12-12T21:41:18.909Z,4.949999999999999
2022-12-12T21:44:17.319Z,4.675
2022-12-12T21:47:16.491Z,4.3125
2022-12-12T21:51:16.501Z,3.9875
2022-12-12T21:54:16.444Z,5.7125
2022-12-12T21:57:19.602Z,4.3125
2022-12-12T22:01:19.009Z,4.425
2022-12-12T22:04:17.232Z,2.8375000000000004
2022-12-12T22:07:19.165Z,3.05
2022-12-12T22:11:34.362Z,3.675
2022-12-12T22:14:18.694Z,3.05
2022-12-12T22:17:17.001Z,2.4875
2022-12-12T22:21:18.121Z,2.7874999999999996
2022-12-12T22:24:17.036Z,3.9
2022-12-12T22:27:16.537Z,6.225
2022-12-12T22:31:17.628Z,6.2875
2022-12-12T22:34:19.525Z,3.9250000000000003
2022-12-12T22:37:16.802Z,2.4
2022-12-12T22:41:16.262Z,2.5250000000000004
2022-12-12T22:44:18.349Z,3.9375
2022-12-12T22:47:16.745Z,3.6125
2022-12-12T22:51:19.382Z,5.725
2022-12-12T22:54:17.092Z,4.35
2022-12-12T22:57:17.345Z,3.05
2022-12-12T23:01:18.504Z,3
2022-12-12T23:04:16.974Z,2.5875
2022-12-12T23:07:16.773Z,3.95
2022-12-12T23:11:18.713Z,3.0875000000000004
2022-12-12T23:14:19.910Z,3.025
2022-12-12T23:17:17.048Z,3.8625
2022-12-12T23:21:20.617Z,3.4875
2022-12-12T23:24:16.671Z,3.2125000000000004
2022-12-12T23:27:16.616Z,3.1375
2022-12-12T23:31:18.853Z,3.875
2022-12-12T23:34:19.888Z,3.5875
2022-12-12T23:37:16.706Z,3.8125
2022-12-12T23:41:16.381Z,4.8
2022-12-12T23:44:18.697Z,3.125
2022-12-12T23:47:16.560Z,4.4375
2022-12-12T23:51:16.286Z,3.2625
2022-12-12T23:54:19.071Z,2.55
2022-12-12T23:57:16.686Z,4.237499999999999
